Time;durP1;ratioP1;P1;durP2;ratioP2;P2;SDS_P1;SDS_P2;PMS_P1;PMS_P2;Temp;Humidity;BMP_temperature;BMP_pressure;BME280_temperature;BME280_humidity;BME280_pressure;Samples;Min_cycle;Max_cycle;Signal;HPM_P1;HPM_P2
2023/03/10 00:02:22;;;;;;;2.42;2.03;;;;;;;12.54;53.57;94142.72;5139911;27;20186;-73
2023/03/10 00:04:50;;;;;;;2.33;2.10;;;;;;;12.49;53.61;94148.59;5122465;27;20199;-72
2023/03/10 00:07:17;;;;;;;1.85;1.75;;;;;;;12.44;53.85;94149.00;5140347;27;20194;-72
2023/03/10 00:09:44;;;;;;;2.00;1.80;;;;;;;12.38;54.06;94165.19;5122226;27;20207;-73
2023/03/10 00:12:11;;;;;;;1.90;1.80;;;;;;;12.38;53.83;94153.28;5122290;27;20187;-72
2023/03/10 00:14:38;;;;;;;1.73;1.63;;;;;;;12.34;54.21;94158.81;5121834;27;20214;-73
2023/03/10 00:17:09;;;;;;;1.88;1.70;;;;;;;12.31;54.65;94165.13;5140473;27;20187;-72
2023/03/10 00:19:36;;;;;;;1.80;1.70;;;;;;;12.27;54.63;94154.06;5123150;27;20203;-72
2023/03/10 00:22:03;;;;;;;1.80;1.70;;;;;;;12.26;54.87;94159.94;5122566;27;20317;-73
2023/03/10 00:24:30;;;;;;;1.70;1.60;;;;;;;12.25;55.40;94159.16;5121904;27;20240;-72
2023/03/10 00:26:57;;;;;;;1.52;1.42;;;;;;;12.23;55.28;94155.97;5122726;27;20199;-73
2023/03/10 00:29:24;;;;;;;1.70;1.60;;;;;;;12.26;54.93;94159.94;5121138;27;20587;-73
2023/03/10 00:31:50;;;;;;;1.77;1.55;;;;;;;12.24;55.57;94151.25;5121506;27;20195;-74
2023/03/10 00:34:19;;;;;;;1.63;1.52;;;;;;;12.19;55.50;94152.41;5121449;27;20202;-73
2023/03/10 00:36:45;;;;;;;1.17;1.10;;;;;;;12.18;55.41;94156.34;5121520;27;20199;-73
2023/03/10 00:39:12;;;;;;;1.58;1.48;;;;;;;12.15;56.08;94145.25;5121611;27;20188;-73
2023/03/10 00:41:39;;;;;;;1.50;1.40;;;;;;;12.09;56.28;94142.09;5138122;27;20214;-73
2023/03/10 00:44:08;;;;;;;1.85;1.70;;;;;;;12.05;55.98;94144.00;5138505;27;20205;-73
2023/03/10 00:46:37;;;;;;;1.83;1.73;;;;;;;12.00;56.34;94134.13;5120584;27;20203;-73
2023/03/10 00:49:04;;;;;;;1.60;1.50;;;;;;;11.92;56.34;94137.22;5121070;27;20203;-73
2023/03/10 00:51:33;;;;;;;1.88;1.77;;;;;;;11.88;56.67;94131.69;5120935;27;20202;-73
2023/03/10 00:54:01;;;;;;;1.88;1.70;;;;;;;11.88;57.03;94130.88;5138454;27;20187;-73
2023/03/10 00:56:28;;;;;;;2.20;2.00;;;;;;;11.86;57.38;94130.47;5120951;27;20198;-73
2023/03/10 00:58:56;;;;;;;2.83;2.13;;;;;;;11.83;57.28;94131.97;5121272;27;20214;-73
2023/03/10 01:01:25;;;;;;;2.17;1.70;;;;;;;11.82;57.65;94127.66;5120890;27;20217;-73
2023/03/10 01:03:53;;;;;;;1.90;1.80;;;;;;;11.79;57.79;94143.00;5138901;27;20540;-72
2023/03/10 01:06:20;;;;;;;2.00;1.90;;;;;;;11.79;57.86;94133.94;5138732;27;20171;-72
2023/03/10 01:08:49;;;;;;;2.80;1.90;;;;;;;11.77;57.93;94141.81;5138600;27;20265;-72
2023/03/10 01:11:16;;;;;;;2.13;1.90;;;;;;;11.72;58.26;94145.72;5120336;27;20544;-73
2023/03/10 01:13:43;;;;;;;2.47;2.28;;;;;;;11.73;58.14;94143.78;5120019;27;20641;-73
2023/03/10 01:16:10;;;;;;;2.90;2.00;;;;;;;11.72;58.03;94140.19;5121235;27;20195;-72
2023/03/10 01:18:37;;;;;;;3.05;2.30;;;;;;;11.66;57.92;94127.13;5121622;27;20206;-72
2023/03/10 01:21:05;;;;;;;2.40;2.20;;;;;;;11.61;58.56;94133.78;5120688;27;20213;-71
2023/03/10 01:23:31;;;;;;;2.10;1.88;;;;;;;11.59;58.85;94130.63;5138546;27;20663;-72
2023/03/10 01:26:00;;;;;;;2.33;2.10;;;;;;;11.55;58.93;94132.56;5138390;27;20218;-73
2023/03/10 01:28:27;;;;;;;2.22;2.03;;;;;;;11.50;59.02;94128.19;5120287;27;20556;-73
2023/03/10 01:30:54;;;;;;;2.42;1.90;;;;;;;11.46;58.42;94132.88;5120474;27;20183;-72
2023/03/10 01:33:20;;;;;;;2.35;2.15;;;;;;;11.45;58.89;94120.25;5119945;27;20210;-72
2023/03/10 01:35:47;;;;;;;3.05;1.98;;;;;;;11.44;59.22;94128.94;5120001;27;20624;-73
2023/03/10 01:38:14;;;;;;;2.03;1.80;;;;;;;11.33;59.00;94135.16;5138461;27;20198;-72
2023/03/10 01:40:45;;;;;;;2.08;1.95;;;;;;;11.33;59.25;94139.88;5120466;27;20214;-73
2023/03/10 01:43:29;;;;;;;2.47;2.28;;;;;;;11.30;59.27;94133.13;5120504;27;20231;-72
2023/03/10 01:46:34;;;;;;;2.38;2.17;;;;;;;11.26;59.29;94137.84;5138803;27;20194;-72
2023/03/10 01:49:04;;;;;;;3.28;2.63;;;;;;;11.24;59.10;94137.41;5120604;27;20206;-72
2023/03/10 01:51:34;;;;;;;3.15;2.83;;;;;;;11.19;59.04;94148.03;5138688;27;20191;-73
2023/03/10 01:54:02;;;;;;;2.70;2.50;;;;;;;11.16;59.32;94137.72;5119224;27;20206;-73
2023/03/10 01:56:29;;;;;;;2.42;2.22;;;;;;;11.16;59.43;94148.78;5119324;27;20514;-73
2023/03/10 01:58:58;;;;;;;2.60;2.40;;;;;;;11.18;59.20;94147.19;5119133;27;20583;-74
2023/03/10 02:01:25;;;;;;;2.42;2.22;;;;;;;11.19;59.23;94139.75;5119348;27;20230;-73
2023/03/10 02:03:56;;;;;;;3.40;2.67;;;;;;;11.17;59.61;94139.31;5137305;27;20190;-73
2023/03/10 02:06:23;;;;;;;3.05;2.75;;;;;;;11.15;59.67;94141.63;5119116;27;20211;-73
2023/03/10 02:08:52;;;;;;;2.40;2.20;;;;;;;11.14;59.45;94148.34;5119190;27;20202;-73
2023/03/10 02:11:20;;;;;;;3.10;2.80;;;;;;;11.14;59.86;94142.81;5119319;27;20191;-73
2023/03/10 02:13:47;;;;;;;2.67;2.47;;;;;;;11.09;59.68;94155.00;5137717;27;20190;-72
2023/03/10 02:16:16;;;;;;;3.25;2.50;;;;;;;11.12;60.07;94150.72;5137214;27;20191;-73
2023/03/10 02:18:44;;;;;;;2.53;2.33;;;;;;;11.13;59.87;94142.03;5119938;27;20202;-72
2023/03/10 02:21:17;;;;;;;2.63;2.42;;;;;;;11.10;60.17;94134.50;5137970;27;20655;-72
2023/03/10 02:23:49;;;;;;;2.42;2.20;;;;;;;11.03;60.71;94137.19;5119499;27;20199;-72
2023/03/10 02:26:21;;;;;;;2.80;2.58;;;;;;;10.96;60.34;94143.44;5136745;27;20205;-73
2023/03/10 02:28:50;;;;;;;2.60;2.35;;;;;;;10.95;60.62;94141.06;5118845;27;20599;-72
2023/03/10 02:31:18;;;;;;;2.50;2.30;;;;;;;10.94;60.77;94153.28;5118748;27;20615;-73
2023/03/10 02:33:46;;;;;;;2.85;2.55;;;;;;;10.91;60.57;94143.78;5118730;27;20199;-73
2023/03/10 02:36:14;;;;;;;3.10;2.88;;;;;;;10.91;60.73;94146.53;5119167;27;20207;-72
2023/03/10 02:38:41;;;;;;;2.95;2.75;;;;;;;10.93;60.86;94144.22;5119328;28;20223;-72
2023/03/10 02:41:14;;;;;;;3.28;2.75;;;;;;;10.92;60.90;94144.56;5119056;27;20225;-73
2023/03/10 02:43:41;;;;;;;3.28;2.60;;;;;;;10.83;60.89;94142.13;5136337;27;20241;-73
2023/03/10 02:46:09;;;;;;;4.30;3.05;;;;;;;10.80;61.03;94154.69;5118367;28;20214;-73
2023/03/10 02:48:37;;;;;;;3.38;3.08;;;;;;;10.80;61.02;94149.16;5137002;28;20199;-73
2023/03/10 02:51:06;;;;;;;2.80;2.60;;;;;;;10.85;61.09;94134.25;5118714;28;20195;-73
2023/03/10 02:53:33;;;;;;;3.05;2.78;;;;;;;10.89;60.89;94137.81;5136643;28;20198;-73
2023/03/10 02:56:00;;;;;;;3.47;3.17;;;;;;;10.83;61.15;94142.13;5136576;28;20202;-73
2023/03/10 02:58:28;;;;;;;4.32;3.22;;;;;;;10.80;61.35;94149.16;5135967;28;20188;-73
2023/03/10 03:00:55;;;;;;;4.90;3.22;;;;;;;10.75;61.43;94148.72;5136123;28;20183;-73
2023/03/10 03:03:24;;;;;;;4.15;3.35;;;;;;;10.60;61.92;94144.97;5119372;28;20191;-72
2023/03/10 03:05:51;;;;;;;4.63;3.08;;;;;;;10.54;62.33;94143.75;5139157;27;20206;-72
2023/03/10 03:08:18;;;;;;;4.30;3.13;;;;;;;10.53;62.19;94150.41;5141065;27;20194;-72
2023/03/10 03:10:46;;;;;;;4.72;3.90;;;;;;;10.47;62.70;94147.19;5122814;27;20191;-72
2023/03/10 03:13:13;;;;;;;6.07;4.85;;;;;;;10.36;62.86;94144.31;5140972;27;20194;-73
2023/03/10 03:15:40;;;;;;;5.68;4.65;;;;;;;10.34;62.83;94145.84;5123137;27;20195;-72
2023/03/10 03:18:07;;;;;;;6.53;4.93;;;;;;;10.31;63.22;94143.81;5122698;27;20199;-73
2023/03/10 03:20:36;;;;;;;13.75;8.40;;;;;;;10.22;63.00;94138.56;5123359;27;20191;-73
2023/03/10 03:23:04;;;;;;;11.68;8.13;;;;;;;10.24;63.28;94140.94;5122844;27;20215;-73
2023/03/10 03:25:31;;;;;;;14.63;9.02;;;;;;;10.22;63.42;94133.06;5141014;27;20599;-72
2023/03/10 03:27:57;;;;;;;4.70;4.20;;;;;;;10.26;63.09;94135.91;5140147;27;20201;-72
2023/03/10 03:30:26;;;;;;;5.53;3.70;;;;;;;10.40;63.10;94135.28;5141120;27;20187;-73
2023/03/10 03:32:53;;;;;;;7.22;5.25;;;;;;;10.41;62.73;94129.38;5140877;27;20194;-72
2023/03/10 03:35:23;;;;;;;7.05;5.38;;;;;;;10.49;62.75;94124.75;5122626;27;20194;-72
2023/03/10 03:37:51;;;;;;;9.57;6.88;;;;;;;10.54;62.68;94121.69;5140324;27;20195;-72
2023/03/10 03:40:18;;;;;;;54.83;30.23;;;;;;;10.46;63.11;94126.31;5122367;27;20194;-73
2023/03/10 03:42:47;;;;;;;58.65;32.28;;;;;;;10.30;63.58;94136.72;5139760;27;20242;-73
2023/03/10 03:45:15;;;;;;;47.28;27.92;;;;;;;10.23;63.22;94136.59;5121851;27;20294;-73
2023/03/10 03:47:42;;;;;;;50.63;27.65;;;;;;;10.24;63.41;94135.44;5121687;27;20206;-73
2023/03/10 03:50:11;;;;;;;43.03;25.00;;;;;;;10.21;63.53;94142.50;5121467;27;20198;-73
2023/03/10 03:52:38;;;;;;;36.08;21.17;;;;;;;10.27;63.62;94141.00;5122077;27;20222;-73
2023/03/10 03:55:08;;;;;;;43.80;24.00;;;;;;;10.33;63.65;94139.53;5139774;27;20190;-74
2023/03/10 03:57:35;;;;;;;45.75;25.45;;;;;;;10.30;63.83;94143.03;5139694;27;20286;-73
2023/03/10 04:00:03;;;;;;;48.80;27.40;;;;;;;10.28;63.67;94139.88;5121355;27;20187;-72
2023/03/10 04:02:30;;;;;;;39.60;22.38;;;;;;;10.26;64.30;94144.16;5121152;27;20301;-72
2023/03/10 04:04:56;;;;;;;37.70;20.98;;;;;;;10.29;63.97;94144.22;5121483;27;20209;-72
2023/03/10 04:07:23;;;;;;;37.45;21.17;;;;;;;10.24;64.00;94140.94;5138978;27;20191;-73
2023/03/10 04:09:50;;;;;;;19.60;11.95;;;;;;;10.21;64.16;94142.50;5120945;27;20194;-72
2023/03/10 04:12:19;;;;;;;25.50;15.10;;;;;;;10.30;64.53;94145.00;5121009;27;20183;-73
2023/03/10 04:14:52;;;;;;;23.45;14.98;;;;;;;10.31;64.66;94141.06;5120616;27;20202;-72
2023/03/10 04:17:19;;;;;;;24.75;14.55;;;;;;;10.24;64.64;94136.25;5120195;27;20195;-73
2023/03/10 04:19:46;;;;;;;25.13;15.05;;;;;;;10.17;64.92;94133.41;5120909;27;20195;-73
2023/03/10 04:22:13;;;;;;;22.65;13.60;;;;;;;10.09;64.94;94132.50;5138817;27;20207;-74
2023/03/10 04:24:40;;;;;;;24.65;13.60;;;;;;;10.06;65.16;94127.75;5138808;27;20187;-74
2023/03/10 04:27:10;;;;;;;19.60;12.60;;;;;;;10.09;64.95;94129.75;5120816;27;20517;-73
2023/03/10 04:29:38;;;;;;;19.00;11.52;;;;;;;10.16;64.85;94137.28;5120686;27;20203;-74
2023/03/10 04:32:06;;;;;;;18.73;11.02;;;;;;;10.22;64.68;94126.75;5138889;27;20206;-73
2023/03/10 04:34:33;;;;;;;14.20;9.73;;;;;;;10.26;64.33;94122.13;5120503;27;20202;-73
2023/03/10 04:37:00;;;;;;;17.10;10.88;;;;;;;10.25;65.04;94126.84;5138562;27;20198;-73
2023/03/10 04:39:26;;;;;;;17.13;10.43;;;;;;;10.22;64.98;94124.00;5120877;27;20195;-72
2023/03/10 04:41:53;;;;;;;15.02;9.45;;;;;;;10.22;64.84;94110.22;5121114;27;20222;-73
2023/03/10 04:44:20;;;;;;;11.43;8.02;;;;;;;10.23;65.08;94118.09;5121180;27;20255;-73
2023/03/10 04:46:48;;;;;;;11.93;7.75;;;;;;;10.26;64.68;94116.59;5139592;27;20190;-73
2023/03/10 04:49:15;;;;;;;6.43;4.82;;;;;;;10.31;64.72;94106.06;5121963;27;20206;-73
2023/03/10 04:51:42;;;;;;;9.55;6.35;;;;;;;10.39;64.49;94112.44;5139556;27;20183;-72
2023/03/10 04:54:09;;;;;;;11.15;7.53;;;;;;;10.34;64.67;94108.03;5121852;27;20199;-73
2023/03/10 04:56:36;;;;;;;6.85;5.15;;;;;;;10.33;64.67;94105.66;5121154;27;20207;-73
2023/03/10 04:59:03;;;;;;;8.90;6.93;;;;;;;10.34;64.84;94101.72;5120763;27;20199;-74
2023/03/10 05:01:31;;;;;;;9.73;7.85;;;;;;;10.27;65.12;94105.19;5138612;27;20243;-75
2023/03/10 05:04:00;;;;;;;14.10;7.95;;;;;;;10.21;65.24;94090.13;5138159;27;20208;-75
2023/03/10 05:06:28;;;;;;;8.13;6.35;;;;;;;10.23;65.35;94092.50;5138479;27;20239;-75
2023/03/10 05:08:55;;;;;;;9.38;7.40;;;;;;;10.19;65.73;94088.91;5120357;27;20543;-75
2023/03/10 05:11:22;;;;;;;10.18;8.25;;;;;;;10.08;65.64;94084.06;5120582;27;20213;-75
2023/03/10 05:13:49;;;;;;;12.70;8.77;;;;;;;10.00;66.01;94089.84;5120446;27;20198;-75
2023/03/10 05:16:18;;;;;;;12.80;9.57;;;;;;;9.98;65.87;94083.91;5138267;27;20187;-75
2023/03/10 05:18:45;;;;;;;9.85;8.27;;;;;;;10.02;66.15;94084.75;5137945;27;20184;-75
2023/03/10 05:21:14;;;;;;;7.90;7.10;;;;;;;10.08;66.00;94084.06;5139130;27;20192;-71
2023/03/10 05:23:40;;;;;;;9.80;8.80;;;;;;;10.15;66.07;94083.38;5138653;27;20218;-68
2023/03/10 05:26:10;;;;;;;10.95;9.55;;;;;;;10.17;65.95;94074.72;5138332;27;20179;-67
2023/03/10 05:28:37;;;;;;;11.13;8.50;;;;;;;10.18;65.88;94077.09;5118874;28;20195;-67
2023/03/10 05:31:08;;;;;;;9.82;8.23;;;;;;;10.12;65.75;94068.38;5137659;27;20176;-69
2023/03/10 05:33:35;;;;;;;10.98;8.90;;;;;;;10.13;66.14;94067.22;5137945;27;20697;-67
2023/03/10 05:36:05;;;;;;;10.10;8.95;;;;;;;10.16;66.36;94070.38;5137543;27;20195;-67
2023/03/10 05:38:34;;;;;;;12.98;8.90;;;;;;;10.09;66.65;94077.41;5119132;27;20272;-67
2023/03/10 05:41:01;;;;;;;13.32;10.85;;;;;;;10.01;66.61;94072.94;5119371;27;20248;-67
2023/03/10 05:43:28;;;;;;;13.63;10.90;;;;;;;9.98;66.57;94062.66;5115744;28;20238;-68
2023/03/10 05:45:56;;;;;;;15.88;11.90;;;;;;;9.99;66.63;94069.78;5117488;28;20619;-67
2023/03/10 05:48:23;;;;;;;17.50;12.50;;;;;;;10.01;66.67;94056.41;5115484;28;20658;-68
2023/03/10 05:50:58;;;;;;;15.70;11.43;;;;;;;10.07;66.32;94062.41;5115799;28;20631;-68
2023/03/10 05:53:25;;;;;;;9.65;8.38;;;;;;;10.12;66.14;94057.34;5116288;28;20224;-69
2023/03/10 05:55:53;;;;;;;7.13;5.95;;;;;;;10.19;66.18;94055.84;5115703;28;20207;-71
2023/03/10 05:58:20;;;;;;;9.40;7.15;;;;;;;10.21;65.98;94059.03;5116346;28;20535;-71
2023/03/10 06:00:47;;;;;;;10.52;6.45;;;;;;;10.28;65.95;94067.44;5116268;28;20184;-71
2023/03/10 06:03:14;;;;;;;11.00;7.18;;;;;;;10.33;65.60;94054.09;5115294;28;20218;-71
2023/03/10 06:05:41;;;;;;;11.43;9.82;;;;;;;10.41;66.01;94060.47;5115690;28;20206;-71
2023/03/10 06:08:08;;;;;;;20.73;17.83;;;;;;;10.49;65.28;94066.84;5114881;28;20211;-71
2023/03/10 06:10:35;;;;;;;18.90;15.85;;;;;;;10.52;65.17;94072.41;5115394;28;20187;-71
2023/03/10 06:13:03;;;;;;;15.23;11.95;;;;;;;10.58;65.04;94065.41;5115148;28;20199;-68
2023/03/10 06:15:30;;;;;;;19.48;14.45;;;;;;;10.61;65.18;94072.13;5116435;28;20199;-71
2023/03/10 06:17:57;;;;;;;18.80;16.38;;;;;;;10.63;65.71;94071.75;5116372;28;20180;-74
2023/03/10 06:20:24;;;;;;;18.50;15.60;;;;;;;10.73;66.03;94071.06;5116288;28;20191;-75
2023/03/10 06:22:52;;;;;;;20.85;17.33;;;;;;;10.80;65.31;94077.47;5114995;28;20211;-74
2023/03/10 06:25:19;;;;;;;19.58;15.00;;;;;;;10.82;64.59;94072.38;5115242;28;20256;-74
2023/03/10 06:27:47;;;;;;;18.77;16.60;;;;;;;10.83;65.18;94075.91;5116179;28;20194;-74
2023/03/10 06:30:16;;;;;;;24.15;18.60;;;;;;;10.87;64.77;94081.47;5115227;28;20188;-74
2023/03/10 06:32:43;;;;;;;24.30;20.15;;;;;;;10.87;65.45;94079.50;5115667;28;20187;-74
2023/03/10 06:35:12;;;;;;;24.05;21.45;;;;;;;10.89;64.69;94070.84;5115666;28;20525;-74
2023/03/10 06:37:39;;;;;;;25.75;23.05;;;;;;;10.90;65.08;94069.69;5115296;28;20273;-74
2023/03/10 06:40:08;;;;;;;23.63;19.30;;;;;;;10.91;65.36;94069.28;5115634;28;20192;-73
2023/03/10 06:42:35;;;;;;;37.88;34.28;;;;;;;10.95;65.00;94083.91;5123735;28;20231;-75
2023/03/10 06:45:02;;;;;;;36.35;32.55;;;;;;;10.96;64.81;94074.44;5118264;28;20195;-74
2023/03/10 06:47:30;;;;;;;33.28;30.05;;;;;;;11.01;65.04;94076.88;5118898;28;20198;-74
2023/03/10 06:49:57;;;;;;;27.10;24.50;;;;;;;11.04;65.23;94078.09;5118598;28;20207;-74
2023/03/10 06:52:24;;;;;;;19.23;17.20;;;;;;;11.03;64.90;94082.78;5136576;28;20224;-74
2023/03/10 06:54:51;;;;;;;15.70;14.10;;;;;;;11.08;64.69;94078.91;5136371;28;20228;-74
2023/03/10 06:57:18;;;;;;;15.27;13.10;;;;;;;11.13;64.34;94086.06;5119003;28;20587;-73
2023/03/10 06:59:45;;;;;;;19.20;17.20;;;;;;;11.16;64.70;94082.53;5118724;28;20195;-75
2023/03/10 07:02:13;;;;;;;20.15;18.08;;;;;;;11.20;64.67;94081.38;5118561;28;20599;-74
2023/03/10 07:04:41;;;;;;;18.55;16.65;;;;;;;11.26;64.11;94076.31;5136885;28;20587;-71
2023/03/10 07:07:08;;;;;;;18.58;16.50;;;;;;;11.28;63.91;94077.50;5136658;28;20179;-70
2023/03/10 07:09:35;;;;;;;23.10;20.73;;;;;;;11.33;63.59;94079.94;5136069;28;20187;-69
2023/03/10 07:12:02;;;;;;;26.92;24.25;;;;;;;11.35;64.39;94068.50;5135824;28;20195;-74
2023/03/10 07:14:29;;;;;;;19.80;17.67;;;;;;;11.41;63.84;94063.44;5118001;28;20199;-70
2023/03/10 07:16:56;;;;;;;7.20;6.53;;;;;;;11.47;63.48;94053.59;5135815;28;20183;-70
2023/03/10 07:19:23;;;;;;;7.68;6.30;;;;;;;11.49;63.13;94063.09;5117843;28;20199;-69
2023/03/10 07:21:52;;;;;;;7.90;6.20;;;;;;;11.53;63.27;94061.13;5135748;28;20186;-69
2023/03/10 07:24:20;;;;;;;7.03;5.93;;;;;;;11.61;63.25;94050.94;5118130;28;20587;-72
2023/03/10 07:26:47;;;;;;;6.63;6.03;;;;;;;11.67;63.31;94048.63;5135972;28;20193;-71
2023/03/10 07:29:14;;;;;;;8.50;5.97;;;;;;;11.70;62.95;94045.88;5118504;28;20187;-70
2023/03/10 07:31:44;;;;;;;9.15;8.13;;;;;;;11.75;62.90;94048.28;5137275;28;20560;-70
2023/03/10 07:34:11;;;;;;;12.20;10.95;;;;;;;11.80;62.75;94053.44;5136789;28;20175;-74
2023/03/10 07:36:37;;;;;;;13.45;12.15;;;;;;;11.84;62.88;94058.22;5135855;28;20191;-74
2023/03/10 07:39:06;;;;;;;14.55;13.10;;;;;;;11.93;62.92;94051.16;5136353;28;20207;-74
2023/03/10 07:41:33;;;;;;;14.15;12.48;;;;;;;12.01;62.51;94049.25;5118903;28;20195;-74
2023/03/10 07:43:59;;;;;;;10.95;9.77;;;;;;;12.06;62.61;94035.06;5117687;28;20234;-74
2023/03/10 07:46:26;;;;;;;8.93;8.07;;;;;;;12.16;62.10;94036.28;5118049;28;20273;-74
2023/03/10 07:48:53;;;;;;;6.28;5.50;;;;;;;12.20;62.30;94023.25;5135866;28;20179;-74
2023/03/10 07:51:20;;;;;;;6.85;5.60;;;;;;;12.27;61.63;94017.75;5136022;27;20180;-73
2023/03/10 07:53:47;;;;;;;7.28;5.38;;;;;;;12.32;61.26;94016.63;5139140;27;20243;-74
2023/03/10 07:56:15;;;;;;;6.18;4.63;;;;;;;12.37;61.58;94016.22;5139391;27;20183;-73
2023/03/10 07:58:42;;;;;;;5.70;4.68;;;;;;;12.44;61.12;94005.19;5140253;27;20199;-74
2023/03/10 08:01:15;;;;;;;5.30;4.13;;;;;;;12.48;61.05;93997.69;5122689;27;20202;-74
2023/03/10 08:03:42;;;;;;;7.25;4.50;;;;;;;12.47;61.11;93996.91;5140077;27;20618;-73
2023/03/10 08:06:09;;;;;;;9.35;6.00;;;;;;;12.49;61.00;93999.25;5139882;27;20205;-73
2023/03/10 08:08:35;;;;;;;4.65;4.22;;;;;;;12.49;60.88;94005.63;5121797;27;20206;-73
2023/03/10 08:11:04;;;;;;;4.88;4.20;;;;;;;12.53;60.54;94000.09;5139275;27;20253;-73
2023/03/10 08:13:33;;;;;;;5.30;4.68;;;;;;;12.49;60.55;93983.50;5121378;27;20209;-73
2023/03/10 08:16:00;;;;;;;7.13;4.72;;;;;;;12.52;60.42;93988.22;5121875;27;20195;-73
2023/03/10 08:18:28;;;;;;;6.10;4.88;;;;;;;12.51;59.92;93978.34;5121679;27;20227;-74
2023/03/10 08:20:55;;;;;;;6.20;5.10;;;;;;;12.52;60.18;93974.38;5121685;27;20583;-73
2023/03/10 08:23:22;;;;;;;5.45;4.93;;;;;;;12.53;60.38;93967.69;5121686;27;20211;-73
2023/03/10 08:25:49;;;;;;;5.82;5.03;;;;;;;12.59;60.17;93967.28;5121698;27;20206;-73
2023/03/10 08:28:16;;;;;;;10.02;5.18;;;;;;;12.73;60.44;93959.03;5139226;27;20176;-74
2023/03/10 08:30:44;;;;;;;8.15;5.22;;;;;;;12.90;60.30;93954.69;5121261;27;20194;-73
2023/03/10 08:33:11;;;;;;;6.70;5.03;;;;;;;13.02;59.83;93946.78;5138919;27;20191;-74
2023/03/10 08:35:38;;;;;;;4.78;4.28;;;;;;;13.10;59.85;93944.00;5121149;27;20206;-73
2023/03/10 08:38:05;;;;;;;8.00;5.00;;;;;;;13.14;59.80;93945.56;5121036;27;20244;-73
2023/03/10 08:40:32;;;;;;;5.03;4.00;;;;;;;13.18;59.71;93942.81;5120728;27;20622;-73
2023/03/10 08:42:59;;;;;;;8.30;3.90;;;;;;;13.29;59.58;93935.34;5117044;28;20674;-73
2023/03/10 08:45:26;;;;;;;5.35;4.38;;;;;;;13.44;60.48;93933.34;5118850;28;20195;-73
2023/03/10 08:47:54;;;;;;;5.82;5.32;;;;;;;13.59;58.86;93934.09;5118578;28;20184;-73
2023/03/10 08:50:21;;;;;;;6.63;4.97;;;;;;;13.74;58.53;93943.94;5119194;28;20200;-74
2023/03/10 08:52:48;;;;;;;7.35;5.43;;;;;;;13.87;58.11;93928.47;5117406;28;20215;-74
2023/03/10 08:55:15;;;;;;;7.13;5.00;;;;;;;14.04;58.29;93920.47;5117365;28;20211;-74
2023/03/10 08:57:42;;;;;;;5.65;4.53;;;;;;;14.06;58.14;93929.19;5118252;28;20191;-74
2023/03/10 09:00:11;;;;;;;5.10;4.60;;;;;;;14.16;57.97;93928.31;5117943;28;20199;-74
2023/03/10 09:02:38;;;;;;;4.63;4.22;;;;;;;14.15;56.62;93907.34;5116758;28;20206;-74
2023/03/10 09:05:07;;;;;;;5.63;5.05;;;;;;;14.10;56.30;93913.31;5116423;28;20287;-74
2023/03/10 09:07:34;;;;;;;6.00;5.03;;;;;;;14.13;57.06;93918.84;5116960;28;20207;-74
2023/03/10 09:10:01;;;;;;;8.43;5.18;;;;;;;14.16;55.99;93906.94;5117136;28;20203;-74
2023/03/10 09:12:27;;;;;;;6.93;5.30;;;;;;;14.17;56.62;93900.19;5116839;28;20249;-73
2023/03/10 09:14:55;;;;;;;6.55;3.90;;;;;;;14.22;56.17;93904.53;5116681;28;20204;-73
2023/03/10 09:17:22;;;;;;;4.38;3.95;;;;;;;14.26;56.33;93896.97;5116463;28;20199;-74
2023/03/10 09:19:48;;;;;;;6.32;3.72;;;;;;;14.25;55.69;93889.84;5116293;28;20200;-73
2023/03/10 09:22:17;;;;;;;4.10;3.40;;;;;;;14.21;56.33;93880.78;5116966;28;20282;-74
2023/03/10 09:24:44;;;;;;;3.72;3.40;;;;;;;14.28;56.16;93885.50;5116905;28;20222;-74
2023/03/10 09:27:10;;;;;;;6.97;3.80;;;;;;;14.35;55.65;93888.22;5116244;28;20200;-74
2023/03/10 09:29:37;;;;;;;3.92;3.55;;;;;;;14.31;55.96;93882.69;5116526;28;20192;-74
2023/03/10 09:32:04;;;;;;;4.45;4.00;;;;;;;14.20;55.57;93879.19;5116425;28;20200;-74
2023/03/10 09:34:31;;;;;;;5.63;3.50;;;;;;;14.13;55.96;93879.25;5116255;28;20200;-75
2023/03/10 09:36:58;;;;;;;4.20;3.80;;;;;;;14.07;56.15;93878.84;5116981;28;20179;-74
2023/03/10 09:39:27;;;;;;;5.78;3.97;;;;;;;14.12;56.30;93880.41;5116210;28;20191;-74
2023/03/10 09:42:07;;;;;;;4.35;3.95;;;;;;;14.14;56.88;93876.06;5118346;27;20591;-73
2023/03/10 09:44:41;;;;;;;4.28;3.83;;;;;;;14.16;56.35;93870.91;5137382;27;20242;-75
2023/03/10 09:47:22;;;;;;;4.95;4.13;;;;;;;14.21;56.01;93861.38;5120055;27;20210;-74
2023/03/10 09:49:57;;;;;;;5.28;3.90;;;;;;;14.24;56.37;93860.56;5119262;27;20552;-73
2023/03/10 09:52:28;;;;;;;6.28;4.70;;;;;;;14.19;56.13;93860.97;5103337;27;20209;-74
2023/03/10 09:54:59;;;;;;;7.10;4.90;;;;;;;14.21;55.62;93858.59;5137528;27;20195;-76
2023/03/10 09:57:26;;;;;;;6.85;4.55;;;;;;;14.22;55.55;93860.16;5137048;27;20199;-75
2023/03/10 09:59:56;;;;;;;5.28;4.75;;;;;;;14.23;55.56;93858.97;5119240;27;20195;-75
2023/03/10 10:02:26;;;;;;;5.07;4.47;;;;;;;14.23;55.70;93856.19;5118789;27;20629;-76
2023/03/10 10:04:55;;;;;;;5.63;4.72;;;;;;;14.26;55.91;93843.50;5118516;27;20215;-75
2023/03/10 10:07:23;;;;;;;7.30;4.93;;;;;;;14.28;55.97;93847.44;5137057;27;20206;-75
2023/03/10 10:09:55;;;;;;;8.00;5.13;;;;;;;14.27;56.13;93820.09;5119221;27;20206;-75
2023/03/10 10:12:26;;;;;;;6.95;5.15;;;;;;;14.14;56.26;93817.81;5118616;27;20198;-75
2023/03/10 10:14:55;;;;;;;7.72;4.88;;;;;;;14.18;55.54;93823.34;5136029;27;20182;-72
2023/03/10 10:17:30;;;;;;;10.02;7.15;;;;;;;14.28;56.04;93830.03;5119154;27;20290;-71
2023/03/10 10:19:58;;;;;;;11.85;7.38;;;;;;;14.35;55.83;93825.22;5136640;27;20683;-71
2023/03/10 10:22:28;;;;;;;8.68;6.38;;;;;;;14.36;55.45;93828.78;5137289;27;20581;-70
2023/03/10 10:25:04;;;;;;;9.07;7.10;;;;;;;14.39;55.56;93825.19;5118407;27;20257;-71
2023/03/10 10:27:33;;;;;;;7.00;5.95;;;;;;;14.40;55.57;93829.53;5118512;27;20611;-71
2023/03/10 10:30:25;;;;;;;11.02;7.35;;;;;;;14.42;55.44;93811.28;5118690;28;20242;-70
2023/03/10 10:32:56;;;;;;;9.52;8.05;;;;;;;14.44;55.59;93808.88;5118554;27;20195;-70
2023/03/10 10:35:24;;;;;;;10.75;9.65;;;;;;;14.45;55.82;93810.50;5118868;27;20195;-70
2023/03/10 10:38:02;;;;;;;11.77;10.57;;;;;;;14.45;55.79;93806.91;5119046;28;20194;-71
2023/03/10 10:40:30;;;;;;;11.27;9.80;;;;;;;14.39;55.80;93806.56;5118613;27;20183;-71
2023/03/10 10:42:59;;;;;;;15.60;14.10;;;;;;;14.35;55.98;93810.56;5118445;27;20238;-71
2023/03/10 10:45:29;;;;;;;31.80;28.92;;;;;;;14.31;56.06;93813.38;5118860;27;20630;-71
2023/03/10 10:47:56;;;;;;;30.23;27.52;;;;;;;14.30;56.53;93813.75;5118490;28;20198;-71
2023/03/10 10:50:25;;;;;;;28.88;26.17;;;;;;;14.27;56.78;93814.56;5118696;28;20202;-75
2023/03/10 10:53:11;;;;;;;24.77;22.48;;;;;;;14.29;56.86;93817.72;5118611;28;20527;-76
2023/03/10 10:55:38;;;;;;;23.10;20.67;;;;;;;14.26;57.40;93826.84;5118433;28;20190;-75
2023/03/10 10:58:23;;;;;;;17.90;14.90;;;;;;;14.20;58.19;93799.56;5118286;28;20626;-75
2023/03/10 11:00:54;;;;;;;16.80;13.18;;;;;;;14.15;58.29;93797.22;5119382;28;20206;-73
2023/03/10 11:03:26;;;;;;;19.02;14.85;;;;;;;14.13;58.75;93793.28;5118326;28;20194;-75
2023/03/10 11:05:53;;;;;;;20.23;15.10;;;;;;;14.12;59.90;93791.69;5118438;28;20290;-75
2023/03/10 11:08:31;;;;;;;20.13;18.02;;;;;;;14.10;61.85;93797.66;5118287;28;20210;-75
2023/03/10 11:11:00;;;;;;;23.80;18.48;;;;;;;14.05;60.95;93777.88;5136077;28;20258;-74
2023/03/10 11:13:33;;;;;;;19.05;16.70;;;;;;;14.05;60.49;93770.38;5136315;28;20629;-75
2023/03/10 11:16:05;;;;;;;22.08;19.77;;;;;;;14.07;61.95;93759.66;5118829;28;20201;-74
2023/03/10 11:18:34;;;;;;;22.77;19.35;;;;;;;14.05;62.86;93750.16;5118084;28;20268;-74
2023/03/10 11:21:07;;;;;;;26.50;20.40;;;;;;;14.07;63.09;93750.53;5118497;28;20199;-75
2023/03/10 11:23:38;;;;;;;19.52;17.42;;;;;;;14.06;62.64;93727.59;5118357;28;20538;-75
2023/03/10 11:26:11;;;;;;;28.45;23.13;;;;;;;14.05;61.72;93730.75;5119046;27;20206;-75
2023/03/10 11:28:46;;;;;;;22.90;18.35;;;;;;;14.10;60.56;93731.13;5122181;27;20198;-74
2023/03/10 11:31:25;;;;;;;14.48;11.40;;;;;;;14.16;60.39;93732.25;5140453;27;20187;-75
2023/03/10 11:33:57;;;;;;;8.70;6.95;;;;;;;14.18;60.61;93727.09;5122143;27;20660;-75